Airfield :
LOGIN :

Register | Disclaimer

   EN    FR    IT 

 










Legend :    VFR   Marginal VFR   IFR   Intensive IFR   Very Intensive IFR
Visi :
Ceiling :
>= 8 km
>= 3000ft
5 to 8 km
1000 to 3000 ft
1500m to 5 km
500 to 1000 ft
800 to 1500m
200 to 500 ft
< 800m
< 200 ft
Symbols :   Thunderstorms  Fog  Heavy snow  Heavy precipitations  Wind > 20 kt
SIGMETs :     Misc.  Thunderstorms  Icing  Turbulence  Mountain Waves  Volcanic Ashes







- Airport Elevation : 1367 ft
- IATA code : FDH


EDNY - Friedrichshafen

CURRENT METAR :
  • 201720Z VRB02KT CAVOK M02/M03 Q1007

EXPIRED METARs :
  • 201650Z 00000KT CAVOK M01/M03 Q1006
  • 201620Z 00000KT CAVOK 00/M02 Q1006
  • 201550Z 00000KT CAVOK 01/M02 Q1005
  • 201520Z VRB02KT 9999 FEW024 02/M02 Q1005
  • 201450Z 24004KT 9999 FEW024 02/M02 Q1005

TAF TAF EDNY
Valid from the 20 at 18:00 until the 21 at 18:00 UTC


201700Z 2018/2118 02007KT 9999 SCT012
TEMPO 2103/2110 2000 BCFG BKN005
BECMG 2110/2112 BKN008
TEMPO 2112/2118 BKN012
No reported NOTAMs for that airfield.



MET'MAP, your aeronautical weather chart ! - Copyright ORBIFLY December 2007 - Disclaimer

ORBIFLY MET'MAP TEAM :

Programming & Development : Alexandra Zaïnal
Concept & Development : Baudouin d'Aumeries
Co-Development & Prog : Marc-Olivier Méhu
Technical & hardware support : Manuel Goepfert

Contact : metmap@orbifly.com




SOURCES & CREDITS :

   NOAA